Time;durP1;ratioP1;P1;durP2;ratioP2;P2;SDS_P1;SDS_P2;PMS_P1;PMS_P2;Temp;Humidity;BMP_temperature;BMP_pressure;BME280_temperature;BME280_humidity;BME280_pressure;Samples;Min_cycle;Max_cycle;Signal;HPM_P1;HPM_P2
2024/04/24 00:01:02;;;;;;;0.10;0.10;;;;;;;13.50;42.33;101790.53;7359149;19;20025;-60
2024/04/24 00:03:28;;;;;;;0.05;0.05;;;;;;;13.48;42.84;101789.69;7354073;19;20121;-60
2024/04/24 00:05:53;;;;;;;0.10;0.10;;;;;;;13.47;42.69;101787.94;7349286;19;20345;-60
2024/04/24 00:08:19;;;;;;;0.00;0.00;;;;;;;13.44;42.81;101775.78;7359670;19;20459;-61
2024/04/24 00:10:44;;;;;;;0.10;0.10;;;;;;;13.45;42.87;101787.13;7340021;19;20968;-60
2024/04/24 00:13:10;;;;;;;0.10;0.10;;;;;;;13.44;42.95;101790.66;7356515;19;20018;-60
2024/04/24 00:15:36;;;;;;;0.00;0.00;;;;;;;13.40;42.70;101775.84;7354147;19;20021;-59
2024/04/24 00:18:01;;;;;;;0.00;0.00;;;;;;;13.41;42.96;101774.94;7352837;19;20854;-60
2024/04/24 00:20:26;;;;;;;0.05;0.05;;;;;;;13.41;42.59;101769.69;7353556;19;20625;-60
2024/04/24 00:22:52;;;;;;;0.00;0.00;;;;;;;13.37;42.99;101758.38;7353622;19;20015;-61
2024/04/24 00:25:17;;;;;;;0.10;0.10;;;;;;;13.29;43.04;101749.78;7350639;19;20003;-60
2024/04/24 00:27:43;;;;;;;0.10;0.10;;;;;;;13.32;42.97;101754.13;7359627;19;20604;-60
2024/04/24 00:30:12;;;;;;;0.10;0.10;;;;;;;13.19;42.89;101743.81;7353852;19;20010;-60
2024/04/24 00:32:39;;;;;;;0.00;0.00;;;;;;;13.17;43.11;101745.56;7361894;19;20014;-60
2024/04/24 00:35:05;;;;;;;0.00;0.00;;;;;;;13.18;43.04;101752.56;7349068;19;20011;-60
2024/04/24 00:37:30;;;;;;;0.00;0.00;;;;;;;13.14;43.12;101745.63;7362317;19;20079;-61
2024/04/24 00:39:55;;;;;;;0.00;0.00;;;;;;;13.11;43.55;101736.94;7356092;19;20026;-60
2024/04/24 00:42:21;;;;;;;0.00;0.00;;;;;;;13.04;43.42;101738.81;7356912;19;20021;-60
2024/04/24 00:44:46;;;;;;;0.00;0.00;;;;;;;12.90;43.32;101715.44;7358719;19;20010;-60
2024/04/24 00:47:15;;;;;;;0.03;0.03;;;;;;;12.95;43.78;101731.09;7356489;19;20014;-60
2024/04/24 00:49:42;;;;;;;0.05;0.05;;;;;;;12.89;43.86;101729.44;7354737;19;20458;-59
2024/04/24 00:52:07;;;;;;;0.10;0.10;;;;;;;12.84;43.56;101728.66;7359049;19;20480;-60
2024/04/24 00:54:33;;;;;;;0.10;0.10;;;;;;;12.79;43.89;101721.75;7356394;19;20006;-60
2024/04/24 00:56:58;;;;;;;0.00;0.00;;;;;;;12.72;44.02;101727.09;7354229;19;20011;-60
2024/04/24 00:59:24;;;;;;;0.10;0.10;;;;;;;12.66;44.08;101716.66;7356639;19;20003;-60
2024/04/24 01:01:50;;;;;;;0.00;0.00;;;;;;;12.61;44.09;101718.50;7351738;19;20571;-60
2024/04/24 01:04:15;;;;;;;0.00;0.00;;;;;;;12.57;43.85;101711.59;7359239;19;20075;-60
2024/04/24 01:06:40;;;;;;;0.05;0.05;;;;;;;12.49;44.44;101715.22;7356017;19;20100;-60
2024/04/24 01:09:06;;;;;;;0.00;0.00;;;;;;;12.45;44.31;101710.00;7356974;19;20856;-59
2024/04/24 01:11:31;;;;;;;0.10;0.10;;;;;;;12.36;44.23;101701.41;7357642;19;20014;-60
2024/04/24 01:13:57;;;;;;;0.10;0.10;;;;;;;12.35;44.63;101699.69;7360585;19;20031;-60
2024/04/24 01:16:33;;;;;;;0.08;0.08;;;;;;;12.30;43.75;101702.34;7363580;19;20458;-60
2024/04/24 01:19:06;;;;;;;0.00;0.00;;;;;;;12.25;44.52;101695.44;7362286;19;20557;-60
2024/04/24 01:21:55;;;;;;;0.00;0.00;;;;;;;12.20;43.21;101693.75;7368379;19;20011;-60
2024/04/24 01:24:31;;;;;;;0.08;0.08;;;;;;;12.15;44.28;101698.19;7364052;19;20377;-60
2024/04/24 01:26:56;;;;;;;0.00;0.00;;;;;;;12.08;44.70;101693.06;7368463;19;20028;-60
2024/04/24 01:29:22;;;;;;;0.10;0.10;;;;;;;12.01;45.05;101694.88;7368169;19;20829;-60
2024/04/24 01:31:47;;;;;;;0.00;0.00;;;;;;;11.94;45.26;101685.38;7370702;19;20006;-60
2024/04/24 01:34:13;;;;;;;0.10;0.10;;;;;;;11.91;44.92;101688.03;7367861;19;20090;-60
2024/04/24 01:36:38;;;;;;;0.00;0.00;;;;;;;11.80;44.77;101679.41;7364448;19;20657;-60
2024/04/24 01:39:04;;;;;;;0.10;0.10;;;;;;;11.71;45.55;101672.56;7369878;19;20031;-61
2024/04/24 01:41:29;;;;;;;0.00;0.00;;;;;;;11.80;45.47;101689.88;7363679;19;20094;-60
2024/04/24 01:43:55;;;;;;;0.00;0.00;;;;;;;11.75;45.37;101681.22;7368358;19;20011;-60
2024/04/24 01:46:20;;;;;;;0.00;0.00;;;;;;;11.70;45.29;101682.13;7371406;19;20319;-60
2024/04/24 01:48:46;;;;;;;0.10;0.10;;;;;;;11.51;45.18;101646.63;7364907;19;20021;-60
2024/04/24 01:51:11;;;;;;;0.10;0.10;;;;;;;11.62;45.74;101664.81;7367430;19;20014;-60
2024/04/24 01:53:37;;;;;;;0.10;0.10;;;;;;;11.58;45.11;101669.19;7367673;19;20011;-60
2024/04/24 01:56:02;;;;;;;0.10;0.10;;;;;;;11.50;45.49;101655.34;7365304;19;20015;-60
2024/04/24 01:58:28;;;;;;;0.00;0.00;;;;;;;11.50;45.97;101659.69;7359874;19;20010;-60
2024/04/24 02:00:53;;;;;;;0.10;0.10;;;;;;;11.31;46.30;101638.13;7366585;19;20026;-60
2024/04/24 02:03:19;;;;;;;0.00;0.00;;;;;;;11.41;45.91;101661.56;7361601;19;20112;-60
2024/04/24 02:05:44;;;;;;;0.10;0.10;;;;;;;11.38;46.05;101655.47;7362267;19;20011;-60
2024/04/24 02:08:09;;;;;;;0.10;0.10;;;;;;;11.30;46.47;101652.06;7368383;19;20014;-60
2024/04/24 02:10:35;;;;;;;0.00;0.00;;;;;;;11.31;46.16;101656.44;7354068;19;20133;-60
2024/04/24 02:13:00;;;;;;;0.10;0.10;;;;;;;11.27;46.34;101663.44;7367262;19;20011;-60
2024/04/24 02:15:26;;;;;;;0.00;0.00;;;;;;;11.17;46.29;101646.97;7366461;19;20341;-60
2024/04/24 02:17:51;;;;;;;0.10;0.10;;;;;;;11.21;46.67;101654.81;7366927;19;20018;-60
2024/04/24 02:20:16;;;;;;;0.00;0.00;;;;;;;11.16;46.55;101644.38;7364011;19;20014;-60
2024/04/24 02:22:43;;;;;;;0.00;0.00;;;;;;;11.13;46.30;101650.50;7367990;19;20090;-61
2024/04/24 02:27:52;;;;;;;0.00;0.00;;;;;;;11.05;46.37;101641.88;7366010;19;20030;-60
2024/04/24 02:30:18;;;;;;;0.00;0.00;;;;;;;11.02;46.28;101638.44;7362938;19;20003;-60
2024/04/24 02:32:43;;;;;;;0.00;0.00;;;;;;;10.99;46.90;101635.81;7361896;19;20019;-60
2024/04/24 02:35:09;;;;;;;0.00;0.00;;;;;;;10.94;46.47;101630.63;7365186;19;20018;-59
2024/04/24 02:37:34;;;;;;;0.00;0.00;;;;;;;10.91;46.84;101638.53;7366774;19;20007;-60
2024/04/24 02:40:00;;;;;;;0.00;0.00;;;;;;;10.88;46.98;101630.69;7360643;19;20034;-60
2024/04/24 02:42:25;;;;;;;0.10;0.10;;;;;;;10.84;46.92;101629.00;7359900;19;20010;-60
2024/04/24 02:44:50;;;;;;;0.00;0.00;;;;;;;10.78;46.96;101618.59;7363222;19;20635;-61
2024/04/24 02:47:16;;;;;;;0.00;0.00;;;;;;;10.77;47.18;101620.34;7365558;19;20044;-60
2024/04/24 02:49:41;;;;;;;0.05;0.05;;;;;;;10.68;47.21;101611.72;7352685;19;20017;-60
2024/04/24 02:52:07;;;;;;;0.10;0.10;;;;;;;10.72;47.32;101621.28;7363636;19;20123;-60
2024/04/24 02:54:32;;;;;;;0.00;0.00;;;;;;;10.62;47.39;101608.28;7361245;19;20797;-60
2024/04/24 02:56:58;;;;;;;0.10;0.10;;;;;;;10.64;47.40;101619.59;7364356;19;20003;-60
2024/04/24 02:59:23;;;;;;;0.10;0.10;;;;;;;10.58;47.64;101601.34;7363264;19;20014;-60
2024/04/24 03:01:48;;;;;;;0.03;0.03;;;;;;;10.58;47.77;101608.31;7363577;19;20002;-60
2024/04/24 03:04:14;;;;;;;0.00;0.00;;;;;;;10.53;47.76;101600.50;7357501;19;20014;-60
2024/04/24 03:06:43;;;;;;;0.10;0.10;;;;;;;10.53;47.68;101605.75;7362097;19;20030;-60
2024/04/24 03:09:12;;;;;;;0.00;0.00;;;;;;;10.49;47.95;101598.84;7361599;19;20014;-61
2024/04/24 03:11:37;;;;;;;0.08;0.08;;;;;;;10.45;47.44;101591.91;7366635;19;20002;-59
2024/04/24 03:14:03;;;;;;;0.10;0.10;;;;;;;10.42;48.28;101591.91;7332521;19;20323;-60
2024/04/24 03:16:32;;;;;;;0.10;0.10;;;;;;;10.40;47.89;101588.47;7358076;19;20003;-60
2024/04/24 03:18:57;;;;;;;0.10;0.10;;;;;;;10.36;47.61;101584.13;7347457;19;20029;-60
2024/04/24 03:21:23;;;;;;;0.10;0.10;;;;;;;10.32;47.91;101591.09;7363366;19;20006;-59
2024/04/24 03:23:48;;;;;;;0.03;0.03;;;;;;;10.28;47.79;101584.16;7362492;19;20014;-60
2024/04/24 03:26:14;;;;;;;0.10;0.10;;;;;;;10.20;47.76;101570.28;7361640;19;20486;-59
2024/04/24 03:28:39;;;;;;;0.00;0.00;;;;;;;10.22;48.00;101576.34;7362730;19;20473;-60
2024/04/24 03:31:05;;;;;;;0.00;0.00;;;;;;;10.20;47.84;101570.28;7359458;19;20003;-63
2024/04/24 03:33:30;;;;;;;0.05;0.05;;;;;;;10.17;48.22;101574.66;7364648;19;20018;-60
2024/04/24 03:35:56;;;;;;;0.10;0.10;;;;;;;10.02;48.33;101555.63;7354157;19;20407;-60
2024/04/24 03:38:21;;;;;;;0.00;0.00;;;;;;;10.06;48.46;101567.78;7355790;19;20006;-60
2024/04/24 03:40:46;;;;;;;0.05;0.05;;;;;;;9.91;48.21;101551.34;7358678;19;20010;-59
2024/04/24 03:43:12;;;;;;;0.10;0.10;;;;;;;10.04;48.54;101571.28;7361036;19;20924;-60
2024/04/24 03:45:37;;;;;;;0.00;0.00;;;;;;;10.00;48.40;101564.34;7366147;19;20022;-59
2024/04/24 03:48:03;;;;;;;0.08;0.08;;;;;;;9.96;48.81;101560.03;7354923;19;20010;-61
2024/04/24 03:50:29;;;;;;;0.00;0.00;;;;;;;9.93;48.51;101566.09;7365571;19;20035;-60
2024/04/24 03:52:54;;;;;;;0.00;0.00;;;;;;;9.80;48.62;101543.59;7359244;19;20697;-60
2024/04/24 03:55:19;;;;;;;0.00;0.00;;;;;;;9.87;48.62;101566.16;7362276;19;20087;-60
2024/04/24 03:57:45;;;;;;;0.10;0.10;;;;;;;9.83;48.67;101554.88;7362044;19;20010;-60
2024/04/24 04:00:11;;;;;;;0.03;0.03;;;;;;;9.77;48.95;101549.69;7361958;19;20011;-60
2024/04/24 04:02:36;;;;;;;0.10;0.10;;;;;;;9.76;49.12;101544.47;7361947;19;20003;-60
2024/04/24 04:05:01;;;;;;;0.00;0.00;;;;;;;9.61;49.11;101530.66;7350416;19;20506;-60
2024/04/24 04:07:27;;;;;;;0.08;0.08;;;;;;;9.46;49.00;101509.00;7366147;19;20011;-60
2024/04/24 04:09:53;;;;;;;0.10;0.10;;;;;;;9.68;49.25;101546.25;7355314;19;19990;-60
2024/04/24 04:12:18;;;;;;;0.00;0.00;;;;;;;9.64;49.12;101550.66;7365219;19;20010;-60
2024/04/24 04:14:43;;;;;;;0.10;0.10;;;;;;;9.59;49.29;101548.06;7362993;19;20010;-60
2024/04/24 04:17:09;;;;;;;0.03;0.03;;;;;;;9.51;49.16;101541.13;7360490;19;22161;-60
2024/04/24 04:19:34;;;;;;;0.00;0.00;;;;;;;9.54;49.22;101538.53;7358587;19;20006;-60
2024/04/24 04:22:00;;;;;;;0.10;0.10;;;;;;;9.52;48.91;101551.56;7363859;19;20010;-60
2024/04/24 04:24:25;;;;;;;0.00;0.00;;;;;;;9.49;49.12;101548.97;7363337;19;19998;-60
2024/04/24 04:26:50;;;;;;;0.10;0.10;;;;;;;9.24;48.98;101510.84;7349604;19;20007;-60
2024/04/24 04:29:16;;;;;;;0.00;0.00;;;;;;;9.44;49.17;101552.47;7364633;19;19994;-61
2024/04/24 04:31:41;;;;;;;0.10;0.10;;;;;;;9.41;49.65;101544.66;7355302;19;20002;-61
2024/04/24 04:34:06;;;;;;;0.00;0.00;;;;;;;9.35;49.70;101537.75;7362214;19;20534;-59
2024/04/24 04:36:32;;;;;;;0.00;0.00;;;;;;;9.15;49.49;101508.28;7357120;19;20015;-59
2024/04/24 04:38:57;;;;;;;0.00;0.00;;;;;;;9.31;49.41;101534.28;7345722;19;20006;-60
2024/04/24 04:41:23;;;;;;;0.10;0.10;;;;;;;9.08;49.57;101492.69;7363032;19;21121;-59
2024/04/24 04:43:48;;;;;;;0.00;0.00;;;;;;;9.25;49.67;101525.63;7356547;19;20002;-59
2024/04/24 04:46:14;;;;;;;0.10;0.10;;;;;;;9.23;49.68;101519.56;7362024;19;20006;-60
2024/04/24 04:48:39;;;;;;;0.00;0.00;;;;;;;9.19;49.24;101517.81;7352514;19;20022;-60
2024/04/24 04:51:05;;;;;;;0.10;0.10;;;;;;;9.16;49.50;101520.44;7364367;19;20986;-60
2024/04/24 04:53:31;;;;;;;0.00;0.00;;;;;;;9.08;49.76;101517.88;7361824;19;20014;-60
2024/04/24 04:55:56;;;;;;;0.10;0.10;;;;;;;8.96;49.53;101503.13;7359039;19;20014;-60
2024/04/24 04:58:21;;;;;;;0.00;0.00;;;;;;;9.06;49.82;101517.84;7361818;19;20006;-60
2024/04/24 05:00:47;;;;;;;0.00;0.00;;;;;;;9.04;49.51;101518.75;7353108;19;20017;-61
2024/04/24 05:03:12;;;;;;;0.10;0.10;;;;;;;8.93;49.62;101499.69;7362126;19;20006;-60
2024/04/24 05:05:37;;;;;;;0.00;0.00;;;;;;;8.99;49.88;101513.56;7337641;19;20011;-59
2024/04/24 05:08:04;;;;;;;0.00;0.00;;;;;;;8.95;50.07;101506.59;7364928;19;20021;-59
2024/04/24 05:10:29;;;;;;;0.00;0.00;;;;;;;8.94;50.29;101512.69;7357747;19;20021;-59
2024/04/24 05:12:54;;;;;;;0.10;0.10;;;;;;;8.89;50.33;101509.25;7362138;19;20565;-60
2024/04/24 05:15:20;;;;;;;0.10;0.10;;;;;;;8.90;50.36;101510.97;7353409;19;20035;-61
2024/04/24 05:17:45;;;;;;;0.00;0.00;;;;;;;8.87;50.62;101515.31;7361464;19;20492;-59
2024/04/24 05:20:11;;;;;;;0.10;0.10;;;;;;;8.84;50.35;101513.59;7358965;19;20010;-60
2024/04/24 05:22:46;;;;;;;0.10;0.10;;;;;;;8.82;50.16;101517.94;7360998;19;20540;-59
2024/04/24 05:25:16;;;;;;;0.10;0.10;;;;;;;8.74;50.19;101504.94;7361270;19;20011;-60
2024/04/24 05:30:26;;;;;;;0.00;0.00;;;;;;;8.77;50.67;101524.91;7360211;19;20664;-60
2024/04/24 05:32:51;;;;;;;0.10;0.10;;;;;;;8.73;50.66;101528.38;7359306;19;20011;-60
2024/04/24 05:35:17;;;;;;;0.00;0.00;;;;;;;8.71;50.52;101530.97;7359829;19;20007;-60
2024/04/24 05:37:42;;;;;;;0.00;0.00;;;;;;;8.72;51.01;101534.47;7356830;19;20014;-59
2024/04/24 05:40:08;;;;;;;0.00;0.00;;;;;;;8.58;50.21;101504.09;7351177;19;20015;-60
2024/04/24 05:42:33;;;;;;;0.10;0.10;;;;;;;8.67;50.50;101523.16;7356328;19;20003;-60
2024/04/24 05:44:59;;;;;;;0.00;0.00;;;;;;;8.69;50.93;101526.66;7359199;19;20029;-60
2024/04/24 05:47:24;;;;;;;0.10;0.10;;;;;;;8.67;50.59;101534.47;7355878;19;20086;-60
2024/04/24 05:49:50;;;;;;;0.00;0.00;;;;;;;8.54;50.69;101507.56;7358658;19;20022;-59
2024/04/24 05:52:15;;;;;;;0.00;0.00;;;;;;;8.55;50.91;101504.09;7361141;19;20934;-60
2024/04/24 05:54:40;;;;;;;0.00;0.00;;;;;;;8.66;50.74;101514.50;7354107;19;20034;-60
2024/04/24 05:57:06;;;;;;;0.00;0.00;;;;;;;8.68;50.92;101515.38;7334634;19;20675;-61
2024/04/24 05:59:31;;;;;;;0.03;0.03;;;;;;;8.69;51.06;101511.03;7357596;19;20101;-59
2024/04/24 06:01:57;;;;;;;0.10;0.10;;;;;;;8.69;51.27;101511.03;7359666;19;20003;-60
2024/04/24 06:04:22;;;;;;;0.00;0.00;;;;;;;8.69;50.99;101511.03;7365807;19;20349;-60
2024/04/24 06:06:47;;;;;;;0.10;0.10;;;;;;;8.72;50.93;101518.84;7357913;19;20011;-60
2024/04/24 06:09:13;;;;;;;0.00;0.00;;;;;;;8.71;51.03;101510.13;7364525;19;20002;-59
2024/04/24 06:11:38;;;;;;;0.10;0.10;;;;;;;8.76;51.38;101517.94;7365046;19;20337;-60
2024/04/24 06:14:04;;;;;;;0.03;0.03;;;;;;;8.78;51.38;101516.22;7362388;19;20006;-60
2024/04/24 06:16:29;;;;;;;0.00;0.00;;;;;;;8.79;51.17;101512.75;7364807;19;20014;-59
2024/04/24 06:18:54;;;;;;;0.00;0.00;;;;;;;8.81;51.63;101517.06;7360970;19;20019;-60
2024/04/24 06:21:20;;;;;;;0.00;0.00;;;;;;;8.83;51.51;101519.69;7365112;19;20011;-61
2024/04/24 06:23:45;;;;;;;0.00;0.00;;;;;;;8.86;51.46;101519.66;7362700;19;20011;-60
2024/04/24 06:26:10;;;;;;;0.00;0.00;;;;;;;8.90;51.44;101516.19;7361121;19;20011;-59
2024/04/24 06:28:36;;;;;;;0.00;0.00;;;;;;;8.96;51.95;101515.28;7354414;19;20047;-60
2024/04/24 06:31:01;;;;;;;0.10;0.10;;;;;;;9.00;51.62;101507.47;7365282;19;20027;-59
2024/04/24 06:33:27;;;;;;;0.03;0.03;;;;;;;9.03;51.76;101504.84;7351235;19;20014;-59
2024/04/24 06:35:52;;;;;;;0.00;0.00;;;;;;;9.09;52.10;101512.66;7354848;19;20007;-60
2024/04/24 06:38:19;;;;;;;0.00;0.00;;;;;;;9.18;52.13;101510.88;7361554;19;20018;-60
2024/04/24 06:40:44;;;;;;;0.00;0.00;;;;;;;9.20;52.18;101499.56;7353457;19;20035;-60
2024/04/24 06:43:10;;;;;;;0.00;0.00;;;;;;;8.80;51.96;101415.50;7361050;19;20018;-61
2024/04/24 06:45:36;;;;;;;0.00;0.00;;;;;;;9.32;52.02;101493.44;7363887;19;20025;-60
2024/04/24 06:48:01;;;;;;;0.00;0.00;;;;;;;9.39;52.14;101497.75;7364564;19;20014;-59
2024/04/24 06:50:27;;;;;;;0.00;0.00;;;;;;;9.40;51.94;101486.44;7357764;19;20093;-59
2024/04/24 06:52:52;;;;;;;0.10;0.10;;;;;;;9.52;52.24;101496.78;7365177;19;20023;-59
2024/04/24 06:55:21;;;;;;;0.10;0.10;;;;;;;9.47;52.03;101477.72;7362371;19;20027;-59
2024/04/24 06:57:46;;;;;;;0.00;0.00;;;;;;;9.65;52.03;101491.53;7362433;19;20011;-60
2024/04/24 07:00:12;;;;;;;0.00;0.00;;;;;;;9.69;52.27;101485.44;7366549;19;20029;-60
2024/04/24 07:02:37;;;;;;;0.00;0.00;;;;;;;9.68;52.01;101470.63;7361591;19;20013;-60
2024/04/24 07:05:03;;;;;;;0.10;0.10;;;;;;;9.79;52.29;101474.91;7357380;19;20414;-60
2024/04/24 07:07:28;;;;;;;0.00;0.00;;;;;;;9.93;51.80;101485.22;7365175;19;20023;-60
2024/04/24 07:09:54;;;;;;;0.00;0.00;;;;;;;9.96;51.95;101482.59;7360399;19;20007;-60
2024/04/24 07:12:19;;;;;;;0.00;0.00;;;;;;;10.02;51.63;101474.72;7358659;19;20010;-60
2024/04/24 07:14:44;;;;;;;0.10;0.10;;;;;;;10.07;51.37;101477.31;7357908;19;20010;-60
2024/04/24 07:17:12;;;;;;;0.00;0.00;;;;;;;10.10;51.83;101475.53;7363668;19;20022;-60
2024/04/24 07:19:37;;;;;;;0.00;0.00;;;;;;;10.10;51.34;101483.38;7362053;19;20038;-60
2024/04/24 07:22:04;;;;;;;0.00;0.00;;;;;;;10.12;51.95;101479.00;7359443;19;20010;-60
2024/04/24 07:24:29;;;;;;;0.10;0.10;;;;;;;10.14;51.59;101482.47;7362241;19;20921;-60
2024/04/24 07:26:55;;;;;;;0.00;0.00;;;;;;;10.14;51.92;101487.69;7363550;19;20010;-60
2024/04/24 07:29:20;;;;;;;0.05;0.05;;;;;;;10.16;51.54;101479.84;7358346;19;20014;-60
2024/04/24 07:31:46;;;;;;;0.00;0.00;;;;;;;10.18;51.80;101482.44;7364264;19;20014;-60
2024/04/24 07:34:12;;;;;;;0.10;0.10;;;;;;;9.90;51.57;101430.47;7360048;19;20176;-59
2024/04/24 07:36:37;;;;;;;0.05;0.05;;;;;;;10.22;51.55;101487.59;7362323;19;20018;-60
2024/04/24 07:39:02;;;;;;;0.10;0.10;;;;;;;10.07;51.57;101459.91;7355843;19;20039;-60
2024/04/24 07:41:28;;;;;;;0.08;0.08;;;;;;;10.29;52.46;101488.44;7357999;19;20098;-60
2024/04/24 07:43:53;;;;;;;0.10;0.10;;;;;;;10.35;52.09;101491.88;7334581;19;20761;-60
2024/04/24 07:46:19;;;;;;;0.10;0.10;;;;;;;10.40;52.13;101484.00;7359380;19;20051;-60
2024/04/24 07:48:44;;;;;;;0.10;0.10;;;;;;;10.49;52.10;101494.38;7362106;19;20007;-60
2024/04/24 07:51:10;;;;;;;0.10;0.10;;;;;;;10.47;51.73;101479.59;7361407;19;20019;-60
2024/04/24 07:53:35;;;;;;;0.10;0.10;;;;;;;10.61;52.07;101489.03;7360925;19;20066;-60
2024/04/24 07:56:00;;;;;;;0.10;0.10;;;;;;;10.76;51.93;101492.38;7358641;19;20743;-60
2024/04/24 07:58:29;;;;;;;0.00;0.00;;;;;;;10.85;52.09;101492.25;7362975;19;20011;-60
2024/04/24 08:00:54;;;;;;;0.10;0.10;;;;;;;10.96;51.83;101485.16;7365921;19;20369;-60
2024/04/24 08:03:19;;;;;;;0.05;0.05;;;;;;;11.06;52.00;101486.78;7362049;19;20007;-60
2024/04/24 08:05:45;;;;;;;0.10;0.10;;;;;;;10.97;51.70;101449.44;7362832;19;20093;-60
2024/04/24 08:08:10;;;;;;;0.10;0.10;;;;;;;11.30;52.09;101479.50;7357853;19;20502;-60
2024/04/24 08:10:36;;;;;;;0.00;0.00;;;;;;;11.42;52.17;101479.34;7360917;19;20011;-60
2024/04/24 08:13:01;;;;;;;0.00;0.00;;;;;;;11.55;52.29;101474.78;7362004;19;20006;-60
2024/04/24 08:15:26;;;;;;;0.10;0.10;;;;;;;11.71;52.46;101478.94;7362187;19;20018;-60
2024/04/24 08:17:52;;;;;;;0.10;0.10;;;;;;;11.84;52.72;101477.03;7361259;19;20054;-60
2024/04/24 08:20:18;;;;;;;0.10;0.10;;;;;;;11.95;52.36;101475.09;7365017;19;20496;-60
2024/04/24 08:22:43;;;;;;;0.10;0.10;;;;;;;12.04;52.54;101468.84;7358059;19;20006;-60
2024/04/24 08:25:08;;;;;;;0.10;0.10;;;;;;;12.16;52.14;101477.34;7361090;19;20073;-60
2024/04/24 08:27:34;;;;;;;0.10;0.10;;;;;;;12.25;52.48;101478.09;7360822;19;20006;-60
2024/04/24 08:29:59;;;;;;;0.10;0.10;;;;;;;12.25;52.19;101457.16;7361971;19;20006;-60
2024/04/24 08:32:26;;;;;;;0.10;0.10;;;;;;;12.35;51.85;101463.94;7359824;19;20014;-60
2024/04/24 08:34:52;;;;;;;0.05;0.05;;;;;;;12.50;51.61;101463.66;7360972;19;20480;-60
2024/04/24 08:37:17;;;;;;;0.10;0.10;;;;;;;12.58;51.58;101461.78;7360741;19;20090;-60
2024/04/24 08:39:42;;;;;;;0.08;0.08;;;;;;;12.65;51.39;101468.63;7359304;19;20015;-60
2024/04/24 08:42:08;;;;;;;0.10;0.10;;;;;;;12.75;51.48;101468.47;7356037;19;20025;-60
2024/04/24 08:44:34;;;;;;;0.10;0.10;;;;;;;12.86;51.21;101461.22;7359625;19;20125;-61
2024/04/24 08:47:01;;;;;;;0.10;0.10;;;;;;;12.91;51.34;101455.00;7359429;19;20023;-61
2024/04/24 08:49:27;;;;;;;0.10;0.10;;;;;;;13.06;51.04;101459.06;7360305;19;20016;-60
2024/04/24 08:51:55;;;;;;;0.10;0.10;;;;;;;13.14;51.31;101454.53;7363263;19;20010;-61
2024/04/24 08:54:22;;;;;;;0.10;0.10;;;;;;;13.23;50.90;101458.78;7358881;19;20014;-60
2024/04/24 08:56:54;;;;;;;0.10;0.10;;;;;;;13.33;51.10;101456.78;7358082;19;20039;-60
2024/04/24 08:59:40;;;;;;;0.10;0.10;;;;;;;13.38;50.86;101450.56;7360841;19;20002;-60
2024/04/24 09:02:07;;;;;;;0.10;0.10;;;;;;;13.40;50.95;101458.38;7360401;19;20039;-60
2024/04/24 09:04:34;;;;;;;0.10;0.10;;;;;;;13.44;51.18;101452.19;7360362;19;20011;-59
2024/04/24 09:07:01;;;;;;;0.10;0.10;;;;;;;13.46;50.97;101450.38;7360154;19;20011;-59
2024/04/24 09:09:26;;;;;;;0.10;0.10;;;;;;;13.50;51.24;101446.78;7358248;19;20073;-60
2024/04/24 09:11:52;;;;;;;0.10;0.10;;;;;;;13.52;50.91;101442.34;7363196;19;20074;-60
2024/04/24 09:14:19;;;;;;;0.00;0.00;;;;;;;13.60;50.93;101439.56;7361007;19;20014;-60
2024/04/24 09:16:45;;;;;;;0.10;0.10;;;;;;;13.65;51.19;101443.81;7360625;19;20102;-60
2024/04/24 09:19:10;;;;;;;0.00;0.00;;;;;;;13.70;50.80;101441.94;7357114;19;20074;-59
2024/04/24 09:21:36;;;;;;;0.10;0.10;;;;;;;13.77;50.57;101443.50;7362302;19;20018;-60
2024/04/24 09:24:01;;;;;;;0.10;0.10;;;;;;;13.85;51.02;101445.09;7357608;19;20681;-61
2024/04/24 09:26:27;;;;;;;0.00;0.00;;;;;;;13.91;50.80;101444.94;7362648;19;20010;-60
2024/04/24 09:28:53;;;;;;;0.10;0.10;;;;;;;13.97;50.99;101445.66;7362495;19;20017;-60
2024/04/24 09:31:18;;;;;;;0.10;0.10;;;;;;;13.92;50.73;101412.53;7360960;19;20032;-60
2024/04/24 09:33:45;;;;;;;0.10;0.10;;;;;;;14.10;51.11;101435.72;7359115;19;20014;-60
2024/04/24 09:36:11;;;;;;;0.10;0.10;;;;;;;14.16;50.96;101439.94;7364976;19;20082;-60
2024/04/24 09:38:36;;;;;;;0.00;0.00;;;;;;;14.08;50.95;101416.47;7368374;19;20459;-60
2024/04/24 09:41:04;;;;;;;0.10;0.10;;;;;;;14.27;50.68;101441.38;7367473;19;20011;-59
2024/04/24 09:43:30;;;;;;;0.10;0.10;;;;;;;14.25;50.55;101440.56;7367842;19;20081;-60
2024/04/24 09:45:57;;;;;;;0.10;0.10;;;;;;;14.30;50.63;101443.06;7368376;19;20021;-60
2024/04/24 09:48:22;;;;;;;0.10;0.10;;;;;;;14.34;50.67;101438.59;7367725;19;20007;-60
2024/04/24 09:50:49;;;;;;;0.10;0.10;;;;;;;14.36;50.81;101437.66;7367174;19;20010;-60
2024/04/24 09:53:18;;;;;;;0.10;0.10;;;;;;;14.39;50.20;101437.56;7364307;19;20036;-61
2024/04/24 09:56:03;;;;;;;0.00;0.00;;;;;;;14.42;49.98;101441.88;7368006;19;20014;-60
2024/04/24 09:58:33;;;;;;;0.00;0.00;;;;;;;14.42;50.39;101436.63;7363043;19;20022;-60
2024/04/24 10:01:06;;;;;;;0.00;0.00;;;;;;;14.40;50.56;101438.44;7366019;19;20017;-59
2024/04/24 10:03:34;;;;;;;0.10;0.10;;;;;;;14.44;50.56;101438.28;7366791;19;20604;-60
2024/04/24 10:06:02;;;;;;;0.10;0.10;;;;;;;14.45;50.63;101437.41;7364172;19;20015;-60
2024/04/24 10:08:32;;;;;;;0.10;0.10;;;;;;;14.49;50.73;101433.81;7364282;19;20010;-60
2024/04/24 10:11:01;;;;;;;0.10;0.10;;;;;;;14.49;50.79;101435.56;7368541;19;20022;-60
2024/04/24 10:13:29;;;;;;;0.10;0.10;;;;;;;14.51;50.21;101431.16;7366981;19;20011;-61
2024/04/24 10:15:58;;;;;;;0.00;0.00;;;;;;;14.52;50.66;101427.63;7366353;19;20030;-60
2024/04/24 10:18:26;;;;;;;0.00;0.00;;;;;;;14.51;50.26;101431.16;7357266;19;20006;-61
2024/04/24 10:20:51;;;;;;;;;;;;;;;14.57;48.58;101425.72;7367924;19;20037;-60
2024/04/24 10:23:18;;;;;;;0.00;0.00;;;;;;;14.50;50.45;101429.44;7357411;19;19921;-60
2024/04/24 10:25:46;;;;;;;0.10;0.10;;;;;;;14.49;50.40;101422.44;7349994;19;20864;-60
2024/04/24 10:28:13;;;;;;;0.10;0.10;;;;;;;14.49;50.84;101417.19;7366213;19;20580;-60
2024/04/24 10:30:39;;;;;;;0.00;0.00;;;;;;;14.48;50.37;101412.84;7368966;19;20015;-60
2024/04/24 10:33:07;;;;;;;0.10;0.10;;;;;;;14.54;50.52;101413.53;7358930;19;20014;-60
2024/04/24 10:35:33;;;;;;;0.00;0.00;;;;;;;14.50;51.07;101395.28;7366899;19;20011;-61
2024/04/24 10:38:03;;;;;;;0.10;0.10;;;;;;;14.68;50.81;101402.63;7363437;19;20018;-60
2024/04/24 10:40:29;;;;;;;0.08;0.08;;;;;;;14.72;50.72;101395.53;7364296;19;20019;-60
2024/04/24 10:42:58;;;;;;;0.10;0.10;;;;;;;14.85;50.59;101393.38;7361772;19;20029;-60
2024/04/24 10:45:24;;;;;;;0.10;0.10;;;;;;;14.91;50.98;101395.84;7357725;19;20011;-60
2024/04/24 10:47:52;;;;;;;0.10;0.10;;;;;;;15.00;50.44;101392.94;7364417;19;20794;-60
2024/04/24 10:50:18;;;;;;;0.10;0.10;;;;;;;15.05;50.75;101391.03;7364681;19;20014;-60
2024/04/24 10:52:51;;;;;;;0.10;0.10;;;;;;;15.11;50.39;101393.50;7366753;19;20011;-60
2024/04/24 10:55:19;;;;;;;0.10;0.10;;;;;;;15.14;50.16;101396.00;7367440;19;20014;-60
2024/04/24 10:57:46;;;;;;;0.10;0.10;;;;;;;15.17;50.29;101388.03;7355429;19;20580;-60
2024/04/24 11:00:28;;;;;;;0.10;0.10;;;;;;;15.20;50.10;101385.28;7367178;19;20105;-61
2024/04/24 11:02:56;;;;;;;0.10;0.10;;;;;;;15.19;50.41;101386.22;7365305;19;20006;-60
2024/04/24 11:05:22;;;;;;;0.10;0.10;;;;;;;15.15;50.53;101376.69;7366292;19;20019;-60
2024/04/24 11:07:58;;;;;;;0.10;0.10;;;;;;;15.18;49.89;101381.84;7362711;19;20514;-60
2024/04/24 11:10:24;;;;;;;0.10;0.10;;;;;;;15.13;50.85;101380.28;7365486;19;20019;-60
2024/04/24 11:12:50;;;;;;;0.10;0.10;;;;;;;15.11;51.00;101380.34;7362392;19;20015;-60
2024/04/24 11:15:20;;;;;;;0.10;0.10;;;;;;;15.15;50.48;101384.56;7362186;19;20018;-61
2024/04/24 11:17:48;;;;;;;0.10;0.10;;;;;;;15.13;50.95;101378.50;7361040;19;20874;-60
2024/04/24 11:20:15;;;;;;;0.10;0.10;;;;;;;15.16;51.18;101370.53;7365446;19;20025;-60
2024/04/24 11:22:41;;;;;;;0.10;0.10;;;;;;;15.11;50.80;101353.16;7361180;19;20006;-60
2024/04/24 11:25:11;;;;;;;0.10;0.10;;;;;;;15.21;50.43;101360.72;7365622;19;20018;-60
2024/04/24 11:27:36;;;;;;;0.10;0.10;;;;;;;15.22;50.88;101356.31;7364551;19;20419;-60